sensor_id;sensor_type;location;lat;lon;timestamp;P1;durP1;ratioP1;P2;durP2;ratioP2
22234;SDS011;11286;45.596;5.284;2022-07-29T00:00:28;3.35;;;2.55;;
22234;SDS011;11286;45.596;5.284;2022-07-29T00:02:54;3.25;;;2.60;;
22234;SDS011;11286;45.596;5.284;2022-07-29T00:05:19;7.30;;;2.55;;
22234;SDS011;11286;45.596;5.284;2022-07-29T00:07:45;4.35;;;2.35;;
22234;SDS011;11286;45.596;5.284;2022-07-29T00:10:10;3.15;;;2.08;;
22234;SDS011;11286;45.596;5.284;2022-07-29T00:12:36;3.50;;;2.55;;
22234;SDS011;11286;45.596;5.284;2022-07-29T00:15:02;2.70;;;2.00;;
22234;SDS011;11286;45.596;5.284;2022-07-29T00:17:29;5.05;;;2.00;;
22234;SDS011;11286;45.596;5.284;2022-07-29T00:19:54;5.57;;;2.00;;
22234;SDS011;11286;45.596;5.284;2022-07-29T00:22:20;2.58;;;1.90;;
22234;SDS011;11286;45.596;5.284;2022-07-29T00:24:48;3.97;;;2.20;;
22234;SDS011;11286;45.596;5.284;2022-07-29T00:27:14;4.63;;;2.03;;
22234;SDS011;11286;45.596;5.284;2022-07-29T00:29:40;3.33;;;2.30;;
22234;SDS011;11286;45.596;5.284;2022-07-29T00:32:06;2.78;;;1.90;;
22234;SDS011;11286;45.596;5.284;2022-07-29T00:34:31;4.45;;;2.30;;
22234;SDS011;11286;45.596;5.284;2022-07-29T00:37:15;2.80;;;1.92;;
22234;SDS011;11286;45.596;5.284;2022-07-29T00:39:41;4.63;;;1.90;;
22234;SDS011;11286;45.596;5.284;2022-07-29T00:42:07;4.32;;;2.40;;
22234;SDS011;11286;45.596;5.284;2022-07-29T00:44:41;2.53;;;2.15;;
22234;SDS011;11286;45.596;5.284;2022-07-29T00:47:07;2.75;;;2.08;;
22234;SDS011;11286;45.596;5.284;2022-07-29T00:49:34;3.22;;;2.08;;
22234;SDS011;11286;45.596;5.284;2022-07-29T00:52:01;2.33;;;1.90;;
22234;SDS011;11286;45.596;5.284;2022-07-29T00:54:28;3.22;;;1.98;;
22234;SDS011;11286;45.596;5.284;2022-07-29T00:56:54;3.13;;;1.88;;
22234;SDS011;11286;45.596;5.284;2022-07-29T00:59:22;4.03;;;1.95;;
22234;SDS011;11286;45.596;5.284;2022-07-29T01:01:48;4.32;;;2.10;;
22234;SDS011;11286;45.596;5.284;2022-07-29T01:04:14;3.70;;;1.90;;
22234;SDS011;11286;45.596;5.284;2022-07-29T01:06:40;2.50;;;2.10;;
22234;SDS011;11286;45.596;5.284;2022-07-29T01:09:07;5.20;;;2.25;;
22234;SDS011;11286;45.596;5.284;2022-07-29T01:11:34;2.33;;;2.13;;
22234;SDS011;11286;45.596;5.284;2022-07-29T01:14:01;2.13;;;1.92;;
22234;SDS011;11286;45.596;5.284;2022-07-29T01:16:29;3.03;;;2.22;;
22234;SDS011;11286;45.596;5.284;2022-07-29T01:19:00;3.63;;;1.90;;
22234;SDS011;11286;45.596;5.284;2022-07-29T01:21:51;2.50;;;2.30;;
22234;SDS011;11286;45.596;5.284;2022-07-29T01:30:22;3.20;;;1.90;;
22234;SDS011;11286;45.596;5.284;2022-07-29T01:32:51;3.67;;;2.20;;
22234;SDS011;11286;45.596;5.284;2022-07-29T01:35:25;4.50;;;2.30;;
22234;SDS011;11286;45.596;5.284;2022-07-29T01:38:08;2.40;;;1.98;;
22234;SDS011;11286;45.596;5.284;2022-07-29T01:40:45;3.85;;;2.40;;
22234;SDS011;11286;45.596;5.284;2022-07-29T01:43:36;2.58;;;2.17;;
22234;SDS011;11286;45.596;5.284;2022-07-29T01:46:09;4.97;;;2.30;;
22234;SDS011;11286;45.596;5.284;2022-07-29T01:48:46;6.60;;;2.30;;
22234;SDS011;11286;45.596;5.284;2022-07-29T01:53:55;3.17;;;2.58;;
22234;SDS011;11286;45.596;5.284;2022-07-29T01:56:31;5.18;;;2.40;;
22234;SDS011;11286;45.596;5.284;2022-07-29T01:58:58;7.35;;;2.50;;
22234;SDS011;11286;45.596;5.284;2022-07-29T02:01:26;3.22;;;2.00;;
22234;SDS011;11286;45.596;5.284;2022-07-29T02:03:54;7.82;;;2.20;;
22234;SDS011;11286;45.596;5.284;2022-07-29T02:06:22;3.88;;;2.10;;
22234;SDS011;11286;45.596;5.284;2022-07-29T02:08:49;2.53;;;2.05;;
22234;SDS011;11286;45.596;5.284;2022-07-29T02:11:17;3.00;;;2.10;;
22234;SDS011;11286;45.596;5.284;2022-07-29T02:13:43;3.50;;;1.90;;
22234;SDS011;11286;45.596;5.284;2022-07-29T02:16:09;4.68;;;2.47;;
22234;SDS011;11286;45.596;5.284;2022-07-29T02:18:37;4.65;;;2.10;;
22234;SDS011;11286;45.596;5.284;2022-07-29T02:21:06;3.88;;;2.30;;
22234;SDS011;11286;45.596;5.284;2022-07-29T02:23:34;2.55;;;2.35;;
22234;SDS011;11286;45.596;5.284;2022-07-29T02:26:02;4.43;;;2.65;;
22234;SDS011;11286;45.596;5.284;2022-07-29T02:28:28;6.05;;;2.50;;
22234;SDS011;11286;45.596;5.284;2022-07-29T02:30:56;2.72;;;2.30;;
22234;SDS011;11286;45.596;5.284;2022-07-29T02:33:24;6.53;;;2.40;;
22234;SDS011;11286;45.596;5.284;2022-07-29T02:35:51;4.10;;;2.60;;
22234;SDS011;11286;45.596;5.284;2022-07-29T02:38:18;3.30;;;2.38;;
22234;SDS011;11286;45.596;5.284;2022-07-29T02:43:53;2.58;;;2.20;;
22234;SDS011;11286;45.596;5.284;2022-07-29T02:46:24;3.55;;;2.20;;
22234;SDS011;11286;45.596;5.284;2022-07-29T02:52:12;4.18;;;2.70;;
22234;SDS011;11286;45.596;5.284;2022-07-29T02:54:45;2.90;;;2.25;;
22234;SDS011;11286;45.596;5.284;2022-07-29T02:57:18;4.25;;;2.30;;
22234;SDS011;11286;45.596;5.284;2022-07-29T02:59:48;4.03;;;2.60;;
22234;SDS011;11286;45.596;5.284;2022-07-29T03:02:17;4.10;;;2.50;;
22234;SDS011;11286;45.596;5.284;2022-07-29T03:04:43;3.50;;;2.45;;
22234;SDS011;11286;45.596;5.284;2022-07-29T03:07:11;2.80;;;2.17;;
22234;SDS011;11286;45.596;5.284;2022-07-29T03:09:40;4.30;;;2.58;;
22234;SDS011;11286;45.596;5.284;2022-07-29T03:12:06;5.10;;;2.28;;
22234;SDS011;11286;45.596;5.284;2022-07-29T03:14:33;2.78;;;2.28;;
22234;SDS011;11286;45.596;5.284;2022-07-29T03:17:00;3.22;;;2.58;;
22234;SDS011;11286;45.596;5.284;2022-07-29T03:19:26;2.50;;;2.30;;
22234;SDS011;11286;45.596;5.284;2022-07-29T03:21:51;3.40;;;2.42;;
22234;SDS011;11286;45.596;5.284;2022-07-29T03:24:28;5.93;;;2.75;;
22234;SDS011;11286;45.596;5.284;2022-07-29T03:26:58;3.67;;;2.25;;
22234;SDS011;11286;45.596;5.284;2022-07-29T03:29:25;3.97;;;2.60;;
22234;SDS011;11286;45.596;5.284;2022-07-29T03:31:51;3.92;;;2.30;;
22234;SDS011;11286;45.596;5.284;2022-07-29T03:34:17;3.97;;;2.60;;
22234;SDS011;11286;45.596;5.284;2022-07-29T03:36:43;2.40;;;2.30;;
22234;SDS011;11286;45.596;5.284;2022-07-29T03:39:09;7.13;;;2.35;;
22234;SDS011;11286;45.596;5.284;2022-07-29T03:41:37;3.85;;;2.30;;
22234;SDS011;11286;45.596;5.284;2022-07-29T03:44:04;4.82;;;2.50;;
22234;SDS011;11286;45.596;5.284;2022-07-29T03:46:31;5.50;;;2.72;;
22234;SDS011;11286;45.596;5.284;2022-07-29T03:49:00;6.07;;;2.92;;
22234;SDS011;11286;45.596;5.284;2022-07-29T03:51:27;3.13;;;2.50;;
22234;SDS011;11286;45.596;5.284;2022-07-29T03:53:53;3.08;;;2.45;;
22234;SDS011;11286;45.596;5.284;2022-07-29T03:56:22;4.15;;;2.42;;
22234;SDS011;11286;45.596;5.284;2022-07-29T03:58:49;4.53;;;2.45;;
22234;SDS011;11286;45.596;5.284;2022-07-29T04:01:16;6.53;;;2.75;;
22234;SDS011;11286;45.596;5.284;2022-07-29T04:03:43;4.90;;;2.75;;
22234;SDS011;11286;45.596;5.284;2022-07-29T04:06:10;3.90;;;2.70;;
22234;SDS011;11286;45.596;5.284;2022-07-29T04:08:36;4.25;;;2.40;;
22234;SDS011;11286;45.596;5.284;2022-07-29T04:11:02;4.65;;;2.33;;
22234;SDS011;11286;45.596;5.284;2022-07-29T04:13:28;3.90;;;2.55;;
22234;SDS011;11286;45.596;5.284;2022-07-29T04:15:54;5.70;;;2.95;;
22234;SDS011;11286;45.596;5.284;2022-07-29T04:18:20;5.13;;;2.60;;
22234;SDS011;11286;45.596;5.284;2022-07-29T04:20:46;4.30;;;3.10;;
22234;SDS011;11286;45.596;5.284;2022-07-29T04:23:11;7.07;;;2.95;;
22234;SDS011;11286;45.596;5.284;2022-07-29T04:25:37;3.95;;;2.70;;
22234;SDS011;11286;45.596;5.284;2022-07-29T04:28:04;4.53;;;2.65;;
22234;SDS011;11286;45.596;5.284;2022-07-29T04:30:31;4.80;;;2.80;;
22234;SDS011;11286;45.596;5.284;2022-07-29T04:32:58;4.15;;;2.88;;
22234;SDS011;11286;45.596;5.284;2022-07-29T04:35:25;5.07;;;2.67;;
22234;SDS011;11286;45.596;5.284;2022-07-29T04:37:52;5.45;;;2.70;;
22234;SDS011;11286;45.596;5.284;2022-07-29T04:40:17;5.72;;;2.80;;
22234;SDS011;11286;45.596;5.284;2022-07-29T04:42:43;4.40;;;2.50;;
22234;SDS011;11286;45.596;5.284;2022-07-29T04:45:09;4.63;;;2.70;;
22234;SDS011;11286;45.596;5.284;2022-07-29T04:47:34;4.28;;;2.72;;
22234;SDS011;11286;45.596;5.284;2022-07-29T04:50:00;5.13;;;2.80;;
22234;SDS011;11286;45.596;5.284;2022-07-29T04:52:26;5.28;;;2.60;;
22234;SDS011;11286;45.596;5.284;2022-07-29T04:54:51;4.68;;;2.40;;
22234;SDS011;11286;45.596;5.284;2022-07-29T04:57:17;4.68;;;2.60;;
22234;SDS011;11286;45.596;5.284;2022-07-29T04:59:43;3.47;;;2.80;;
22234;SDS011;11286;45.596;5.284;2022-07-29T05:02:09;4.47;;;2.97;;
22234;SDS011;11286;45.596;5.284;2022-07-29T05:04:35;7.38;;;3.15;;
22234;SDS011;11286;45.596;5.284;2022-07-29T05:07:00;5.97;;;3.22;;
22234;SDS011;11286;45.596;5.284;2022-07-29T05:09:26;6.22;;;2.97;;
22234;SDS011;11286;45.596;5.284;2022-07-29T05:11:52;4.63;;;3.10;;
22234;SDS011;11286;45.596;5.284;2022-07-29T05:14:17;3.63;;;2.63;;
22234;SDS011;11286;45.596;5.284;2022-07-29T05:16:43;5.65;;;2.90;;
22234;SDS011;11286;45.596;5.284;2022-07-29T05:19:08;6.50;;;2.75;;
22234;SDS011;11286;45.596;5.284;2022-07-29T05:21:34;6.05;;;2.70;;
22234;SDS011;11286;45.596;5.284;2022-07-29T05:24:00;3.80;;;2.90;;
22234;SDS011;11286;45.596;5.284;2022-07-29T05:26:26;5.72;;;2.80;;
22234;SDS011;11286;45.596;5.284;2022-07-29T05:28:51;4.72;;;2.80;;
22234;SDS011;11286;45.596;5.284;2022-07-29T05:31:18;3.80;;;2.33;;
22234;SDS011;11286;45.596;5.284;2022-07-29T05:33:44;4.03;;;2.60;;
22234;SDS011;11286;45.596;5.284;2022-07-29T05:36:10;3.92;;;2.63;;
22234;SDS011;11286;45.596;5.284;2022-07-29T05:38:36;5.15;;;2.78;;
22234;SDS011;11286;45.596;5.284;2022-07-29T05:41:02;4.10;;;2.65;;
22234;SDS011;11286;45.596;5.284;2022-07-29T05:43:30;8.50;;;3.15;;
22234;SDS011;11286;45.596;5.284;2022-07-29T05:45:55;4.43;;;2.90;;
22234;SDS011;11286;45.596;5.284;2022-07-29T05:48:21;5.22;;;3.20;;
22234;SDS011;11286;45.596;5.284;2022-07-29T05:50:47;9.90;;;3.42;;
22234;SDS011;11286;45.596;5.284;2022-07-29T05:53:12;5.93;;;3.30;;
22234;SDS011;11286;45.596;5.284;2022-07-29T05:55:38;5.70;;;3.20;;
22234;SDS011;11286;45.596;5.284;2022-07-29T05:58:04;4.13;;;3.20;;
22234;SDS011;11286;45.596;5.284;2022-07-29T06:00:29;12.13;;;3.45;;
22234;SDS011;11286;45.596;5.284;2022-07-29T06:02:55;8.02;;;2.92;;
22234;SDS011;11286;45.596;5.284;2022-07-29T06:05:21;7.55;;;3.17;;
22234;SDS011;11286;45.596;5.284;2022-07-29T06:07:47;5.78;;;2.90;;
22234;SDS011;11286;45.596;5.284;2022-07-29T06:10:13;9.32;;;3.13;;
22234;SDS011;11286;45.596;5.284;2022-07-29T06:12:39;7.30;;;3.30;;
22234;SDS011;11286;45.596;5.284;2022-07-29T06:15:04;7.68;;;2.97;;
22234;SDS011;11286;45.596;5.284;2022-07-29T06:17:30;6.45;;;3.30;;
22234;SDS011;11286;45.596;5.284;2022-07-29T06:19:56;5.60;;;3.42;;
22234;SDS011;11286;45.596;5.284;2022-07-29T06:22:22;5.07;;;2.80;;
22234;SDS011;11286;45.596;5.284;2022-07-29T06:24:48;7.32;;;3.03;;
22234;SDS011;11286;45.596;5.284;2022-07-29T06:27:14;8.10;;;3.00;;
22234;SDS011;11286;45.596;5.284;2022-07-29T06:29:41;6.35;;;3.20;;
22234;SDS011;11286;45.596;5.284;2022-07-29T06:32:07;6.57;;;3.95;;
22234;SDS011;11286;45.596;5.284;2022-07-29T06:34:34;10.25;;;3.50;;
22234;SDS011;11286;45.596;5.284;2022-07-29T06:37:00;6.90;;;2.90;;
22234;SDS011;11286;45.596;5.284;2022-07-29T06:39:27;9.75;;;3.53;;
22234;SDS011;11286;45.596;5.284;2022-07-29T06:41:53;11.95;;;3.38;;
22234;SDS011;11286;45.596;5.284;2022-07-29T06:44:18;8.88;;;3.40;;
22234;SDS011;11286;45.596;5.284;2022-07-29T06:46:45;10.32;;;3.35;;
22234;SDS011;11286;45.596;5.284;2022-07-29T06:49:14;9.48;;;4.53;;
22234;SDS011;11286;45.596;5.284;2022-07-29T06:51:39;8.15;;;5.35;;
22234;SDS011;11286;45.596;5.284;2022-07-29T06:54:05;9.13;;;5.05;;
22234;SDS011;11286;45.596;5.284;2022-07-29T06:56:31;10.60;;;5.00;;
22234;SDS011;11286;45.596;5.284;2022-07-29T06:58:58;10.20;;;4.45;;
22234;SDS011;11286;45.596;5.284;2022-07-29T07:01:23;7.18;;;4.32;;
22234;SDS011;11286;45.596;5.284;2022-07-29T07:03:49;11.85;;;4.60;;
22234;SDS011;11286;45.596;5.284;2022-07-29T07:06:15;9.13;;;4.95;;
22234;SDS011;11286;45.596;5.284;2022-07-29T07:08:41;9.48;;;4.78;;
22234;SDS011;11286;45.596;5.284;2022-07-29T07:11:06;13.75;;;5.20;;
22234;SDS011;11286;45.596;5.284;2022-07-29T07:13:32;13.40;;;6.30;;
22234;SDS011;11286;45.596;5.284;2022-07-29T07:15:59;12.80;;;5.32;;
22234;SDS011;11286;45.596;5.284;2022-07-29T07:18:28;9.43;;;5.13;;
22234;SDS011;11286;45.596;5.284;2022-07-29T07:20:54;8.52;;;5.07;;
22234;SDS011;11286;45.596;5.284;2022-07-29T07:23:20;9.88;;;4.93;;
22234;SDS011;11286;45.596;5.284;2022-07-29T07:25:46;6.25;;;4.32;;
22234;SDS011;11286;45.596;5.284;2022-07-29T07:28:12;7.55;;;4.55;;
22234;SDS011;11286;45.596;5.284;2022-07-29T07:30:37;7.03;;;3.90;;
22234;SDS011;11286;45.596;5.284;2022-07-29T07:33:04;9.45;;;4.18;;
22234;SDS011;11286;45.596;5.284;2022-07-29T07:35:29;8.60;;;3.83;;
22234;SDS011;11286;45.596;5.284;2022-07-29T07:37:55;8.02;;;3.83;;
22234;SDS011;11286;45.596;5.284;2022-07-29T07:40:23;7.68;;;4.88;;
22234;SDS011;11286;45.596;5.284;2022-07-29T07:42:49;6.93;;;4.47;;
22234;SDS011;11286;45.596;5.284;2022-07-29T07:45:15;9.52;;;5.20;;
22234;SDS011;11286;45.596;5.284;2022-07-29T07:47:41;8.52;;;5.05;;
22234;SDS011;11286;45.596;5.284;2022-07-29T07:50:07;10.25;;;4.47;;
22234;SDS011;11286;45.596;5.284;2022-07-29T07:52:34;10.00;;;4.78;;
22234;SDS011;11286;45.596;5.284;2022-07-29T07:54:59;7.40;;;4.60;;
22234;SDS011;11286;45.596;5.284;2022-07-29T07:57:26;7.63;;;4.55;;
22234;SDS011;11286;45.596;5.284;2022-07-29T07:59:52;9.18;;;5.50;;
22234;SDS011;11286;45.596;5.284;2022-07-29T08:02:17;9.68;;;5.20;;
22234;SDS011;11286;45.596;5.284;2022-07-29T08:04:43;6.45;;;5.38;;
22234;SDS011;11286;45.596;5.284;2022-07-29T08:07:08;7.72;;;4.82;;
22234;SDS011;11286;45.596;5.284;2022-07-29T08:09:34;6.18;;;4.80;;
22234;SDS011;11286;45.596;5.284;2022-07-29T08:12:01;7.68;;;4.70;;
22234;SDS011;11286;45.596;5.284;2022-07-29T08:14:30;13.43;;;5.85;;
22234;SDS011;11286;45.596;5.284;2022-07-29T08:16:56;10.07;;;4.80;;
22234;SDS011;11286;45.596;5.284;2022-07-29T08:19:22;7.68;;;4.80;;
22234;SDS011;11286;45.596;5.284;2022-07-29T08:21:48;7.68;;;5.03;;
22234;SDS011;11286;45.596;5.284;2022-07-29T08:24:14;6.57;;;4.95;;
22234;SDS011;11286;45.596;5.284;2022-07-29T08:26:58;7.20;;;5.30;;
22234;SDS011;11286;45.596;5.284;2022-07-29T08:29:24;6.68;;;5.10;;
22234;SDS011;11286;45.596;5.284;2022-07-29T08:31:49;8.65;;;5.50;;
22234;SDS011;11286;45.596;5.284;2022-07-29T08:34:15;7.13;;;5.20;;
22234;SDS011;11286;45.596;5.284;2022-07-29T08:36:40;5.75;;;5.03;;
22234;SDS011;11286;45.596;5.284;2022-07-29T08:39:06;9.68;;;5.50;;
22234;SDS011;11286;45.596;5.284;2022-07-29T08:41:32;8.95;;;5.68;;
22234;SDS011;11286;45.596;5.284;2022-07-29T08:43:57;9.00;;;5.28;;
22234;SDS011;11286;45.596;5.284;2022-07-29T08:46:23;6.78;;;5.30;;
22234;SDS011;11286;45.596;5.284;2022-07-29T08:48:49;8.50;;;5.22;;
22234;SDS011;11286;45.596;5.284;2022-07-29T08:51:15;9.38;;;5.38;;
22234;SDS011;11286;45.596;5.284;2022-07-29T08:53:43;8.80;;;4.93;;
22234;SDS011;11286;45.596;5.284;2022-07-29T08:56:13;10.27;;;5.43;;
22234;SDS011;11286;45.596;5.284;2022-07-29T08:58:41;8.93;;;5.20;;
22234;SDS011;11286;45.596;5.284;2022-07-29T09:01:08;6.70;;;4.68;;
22234;SDS011;11286;45.596;5.284;2022-07-29T09:03:36;7.50;;;4.32;;
22234;SDS011;11286;45.596;5.284;2022-07-29T09:06:04;7.45;;;4.50;;
22234;SDS011;11286;45.596;5.284;2022-07-29T09:08:33;6.47;;;4.28;;
22234;SDS011;11286;45.596;5.284;2022-07-29T09:11:00;6.30;;;4.28;;
22234;SDS011;11286;45.596;5.284;2022-07-29T09:13:28;9.60;;;4.00;;
22234;SDS011;11286;45.596;5.284;2022-07-29T09:15:53;6.68;;;4.05;;
22234;SDS011;11286;45.596;5.284;2022-07-29T09:18:35;5.93;;;4.32;;
22234;SDS011;11286;45.596;5.284;2022-07-29T09:21:08;7.70;;;4.50;;
22234;SDS011;11286;45.596;5.284;2022-07-29T09:26:40;11.77;;;5.20;;
22234;SDS011;11286;45.596;5.284;2022-07-29T09:29:10;6.03;;;4.22;;
22234;SDS011;11286;45.596;5.284;2022-07-29T09:31:41;9.30;;;5.05;;
22234;SDS011;11286;45.596;5.284;2022-07-29T09:34:08;5.35;;;4.47;;
22234;SDS011;11286;45.596;5.284;2022-07-29T09:36:41;6.55;;;4.70;;
22234;SDS011;11286;45.596;5.284;2022-07-29T09:39:12;9.32;;;5.47;;
22234;SDS011;11286;45.596;5.284;2022-07-29T09:41:51;9.43;;;4.50;;
22234;SDS011;11286;45.596;5.284;2022-07-29T09:44:21;7.57;;;4.90;;
22234;SDS011;11286;45.596;5.284;2022-07-29T09:46:58;7.90;;;5.32;;
22234;SDS011;11286;45.596;5.284;2022-07-29T09:49:35;6.80;;;5.40;;
22234;SDS011;11286;45.596;5.284;2022-07-29T09:52:15;6.38;;;4.80;;
22234;SDS011;11286;45.596;5.284;2022-07-29T09:54:40;8.00;;;5.85;;
22234;SDS011;11286;45.596;5.284;2022-07-29T09:57:07;8.45;;;6.13;;
22234;SDS011;11286;45.596;5.284;2022-07-29T09:59:37;11.05;;;4.95;;
22234;SDS011;11286;45.596;5.284;2022-07-29T10:02:13;11.32;;;5.25;;
22234;SDS011;11286;45.596;5.284;2022-07-29T10:04:40;9.32;;;5.47;;
22234;SDS011;11286;45.596;5.284;2022-07-29T10:07:07;5.90;;;5.03;;
22234;SDS011;11286;45.596;5.284;2022-07-29T10:09:33;6.97;;;6.10;;
22234;SDS011;11286;45.596;5.284;2022-07-29T10:14:32;9.15;;;6.35;;
22234;SDS011;11286;45.596;5.284;2022-07-29T10:17:01;6.95;;;5.82;;
22234;SDS011;11286;45.596;5.284;2022-07-29T10:19:28;8.75;;;5.50;;
22234;SDS011;11286;45.596;5.284;2022-07-29T10:21:58;7.25;;;5.55;;
22234;SDS011;11286;45.596;5.284;2022-07-29T10:24:26;13.57;;;6.45;;
22234;SDS011;11286;45.596;5.284;2022-07-29T10:26:53;8.63;;;5.90;;
22234;SDS011;11286;45.596;5.284;2022-07-29T10:29:24;7.93;;;5.88;;
22234;SDS011;11286;45.596;5.284;2022-07-29T10:34:34;9.18;;;6.65;;
22234;SDS011;11286;45.596;5.284;2022-07-29T10:40:32;6.25;;;5.53;;
22234;SDS011;11286;45.596;5.284;2022-07-29T10:43:40;6.75;;;6.13;;
22234;SDS011;11286;45.596;5.284;2022-07-29T10:46:08;6.63;;;5.57;;
22234;SDS011;11286;45.596;5.284;2022-07-29T10:48:35;6.47;;;5.50;;
22234;SDS011;11286;45.596;5.284;2022-07-29T10:51:08;6.93;;;5.03;;
22234;SDS011;11286;45.596;5.284;2022-07-29T10:53:47;6.97;;;5.53;;
22234;SDS011;11286;45.596;5.284;2022-07-29T10:56:25;5.85;;;4.80;;
22234;SDS011;11286;45.596;5.284;2022-07-29T11:01:49;5.80;;;4.95;;
22234;SDS011;11286;45.596;5.284;2022-07-29T11:05:02;5.18;;;4.78;;
22234;SDS011;11286;45.596;5.284;2022-07-29T11:07:10;6.40;;;5.03;;
22234;SDS011;11286;45.596;5.284;2022-07-29T11:09:37;7.63;;;4.30;;
22234;SDS011;11286;45.596;5.284;2022-07-29T11:12:04;5.07;;;4.40;;
22234;SDS011;11286;45.596;5.284;2022-07-29T11:15:01;5.25;;;4.65;;
22234;SDS011;11286;45.596;5.284;2022-07-29T11:17:27;5.18;;;4.30;;
22234;SDS011;11286;45.596;5.284;2022-07-29T11:22:57;6.25;;;4.50;;
22234;SDS011;11286;45.596;5.284;2022-07-29T11:25:23;5.65;;;4.13;;
22234;SDS011;11286;45.596;5.284;2022-07-29T11:27:49;5.30;;;4.30;;
22234;SDS011;11286;45.596;5.284;2022-07-29T11:30:17;4.40;;;3.83;;
22234;SDS011;11286;45.596;5.284;2022-07-29T11:32:43;4.30;;;3.63;;
22234;SDS011;11286;45.596;5.284;2022-07-29T11:35:11;4.50;;;3.83;;
22234;SDS011;11286;45.596;5.284;2022-07-29T11:37:46;4.32;;;3.92;;
22234;SDS011;11286;45.596;5.284;2022-07-29T11:40:32;5.40;;;3.78;;
22234;SDS011;11286;45.596;5.284;2022-07-29T11:42:58;4.20;;;3.80;;
22234;SDS011;11286;45.596;5.284;2022-07-29T11:45:24;4.20;;;3.80;;
22234;SDS011;11286;45.596;5.284;2022-07-29T11:47:56;6.15;;;4.47;;
22234;SDS011;11286;45.596;5.284;2022-07-29T11:50:33;4.78;;;3.67;;
22234;SDS011;11286;45.596;5.284;2022-07-29T11:53:02;5.20;;;3.90;;
22234;SDS011;11286;45.596;5.284;2022-07-29T11:55:34;3.85;;;3.53;;
22234;SDS011;11286;45.596;5.284;2022-07-29T11:58:04;4.20;;;3.80;;
22234;SDS011;11286;45.596;5.284;2022-07-29T12:00:33;4.53;;;3.50;;
22234;SDS011;11286;45.596;5.284;2022-07-29T12:03:03;5.30;;;3.67;;
22234;SDS011;11286;45.596;5.284;2022-07-29T12:08:21;4.18;;;3.75;;
22234;SDS011;11286;45.596;5.284;2022-07-29T12:10:50;4.00;;;3.60;;
22234;SDS011;11286;45.596;5.284;2022-07-29T12:13:17;4.45;;;3.40;;
22234;SDS011;11286;45.596;5.284;2022-07-29T12:15:52;3.70;;;3.35;;
22234;SDS011;11286;45.596;5.284;2022-07-29T12:18:23;4.55;;;3.70;;
22234;SDS011;11286;45.596;5.284;2022-07-29T12:20:55;6.05;;;3.33;;
22234;SDS011;11286;45.596;5.284;2022-07-29T12:23:28;2.95;;;2.65;;
22234;SDS011;11286;45.596;5.284;2022-07-29T12:25:54;3.33;;;2.13;;
22234;SDS011;11286;45.596;5.284;2022-07-29T12:28:20;2.88;;;2.60;;
22234;SDS011;11286;45.596;5.284;2022-07-29T12:30:47;3.83;;;2.60;;
22234;SDS011;11286;45.596;5.284;2022-07-29T12:33:15;3.75;;;2.75;;
22234;SDS011;11286;45.596;5.284;2022-07-29T12:35:53;3.05;;;2.75;;
22234;SDS011;11286;45.596;5.284;2022-07-29T12:38:24;2.88;;;2.55;;
22234;SDS011;11286;45.596;5.284;2022-07-29T12:40:51;3.05;;;2.75;;
22234;SDS011;11286;45.596;5.284;2022-07-29T12:43:19;2.72;;;2.53;;
22234;SDS011;11286;45.596;5.284;2022-07-29T12:45:50;2.58;;;2.22;;
22234;SDS011;11286;45.596;5.284;2022-07-29T12:48:34;3.50;;;2.70;;
22234;SDS011;11286;45.596;5.284;2022-07-29T12:51:04;4.45;;;2.90;;
22234;SDS011;11286;45.596;5.284;2022-07-29T12:53:32;4.15;;;2.45;;
22234;SDS011;11286;45.596;5.284;2022-07-29T12:55:58;2.85;;;2.40;;
22234;SDS011;11286;45.596;5.284;2022-07-29T12:58:40;3.40;;;2.53;;
22234;SDS011;11286;45.596;5.284;2022-07-29T13:01:08;4.13;;;2.63;;
22234;SDS011;11286;45.596;5.284;2022-07-29T13:03:47;2.78;;;2.58;;
22234;SDS011;11286;45.596;5.284;2022-07-29T13:06:27;3.58;;;3.03;;
22234;SDS011;11286;45.596;5.284;2022-07-29T13:09:12;4.50;;;2.70;;
22234;SDS011;11286;45.596;5.284;2022-07-29T13:11:48;4.07;;;2.30;;
22234;SDS011;11286;45.596;5.284;2022-07-29T13:14:32;4.70;;;2.60;;
22234;SDS011;11286;45.596;5.284;2022-07-29T13:17:17;2.75;;;2.45;;
22234;SDS011;11286;45.596;5.284;2022-07-29T13:19:53;3.30;;;2.45;;
22234;SDS011;11286;45.596;5.284;2022-07-29T13:22:30;2.88;;;2.50;;
22234;SDS011;11286;45.596;5.284;2022-07-29T13:24:57;3.08;;;2.50;;
22234;SDS011;11286;45.596;5.284;2022-07-29T13:27:24;2.70;;;2.50;;
22234;SDS011;11286;45.596;5.284;2022-07-29T13:29:52;2.55;;;2.35;;
22234;SDS011;11286;45.596;5.284;2022-07-29T13:32:21;3.13;;;2.35;;
22234;SDS011;11286;45.596;5.284;2022-07-29T13:34:47;2.95;;;2.47;;
22234;SDS011;11286;45.596;5.284;2022-07-29T13:37:13;2.42;;;2.22;;
22234;SDS011;11286;45.596;5.284;2022-07-29T13:39:39;3.78;;;2.30;;
22234;SDS011;11286;45.596;5.284;2022-07-29T13:42:06;2.60;;;2.40;;
22234;SDS011;11286;45.596;5.284;2022-07-29T13:44:33;2.53;;;2.33;;
22234;SDS011;11286;45.596;5.284;2022-07-29T13:46:59;4.32;;;2.50;;
22234;SDS011;11286;45.596;5.284;2022-07-29T13:49:25;3.47;;;2.35;;
22234;SDS011;11286;45.596;5.284;2022-07-29T13:51:52;3.00;;;2.70;;
22234;SDS011;11286;45.596;5.284;2022-07-29T13:54:17;3.13;;;2.40;;
22234;SDS011;11286;45.596;5.284;2022-07-29T13:56:43;3.75;;;2.47;;
22234;SDS011;11286;45.596;5.284;2022-07-29T13:59:09;2.42;;;2.22;;
22234;SDS011;11286;45.596;5.284;2022-07-29T14:01:34;3.05;;;2.20;;
22234;SDS011;11286;45.596;5.284;2022-07-29T14:04:00;2.30;;;2.10;;
22234;SDS011;11286;45.596;5.284;2022-07-29T14:06:26;3.05;;;2.47;;
22234;SDS011;11286;45.596;5.284;2022-07-29T14:08:52;2.75;;;1.98;;
22234;SDS011;11286;45.596;5.284;2022-07-29T14:11:17;2.33;;;2.13;;
22234;SDS011;11286;45.596;5.284;2022-07-29T14:13:43;3.17;;;2.25;;
22234;SDS011;11286;45.596;5.284;2022-07-29T14:16:09;2.58;;;2.15;;
22234;SDS011;11286;45.596;5.284;2022-07-29T14:18:34;3.40;;;2.38;;
22234;SDS011;11286;45.596;5.284;2022-07-29T14:21:00;3.20;;;2.40;;
22234;SDS011;11286;45.596;5.284;2022-07-29T14:23:25;2.88;;;2.30;;
22234;SDS011;11286;45.596;5.284;2022-07-29T14:25:51;2.50;;;2.30;;
22234;SDS011;11286;45.596;5.284;2022-07-29T14:28:17;3.70;;;2.50;;
22234;SDS011;11286;45.596;5.284;2022-07-29T14:30:43;3.03;;;2.50;;
22234;SDS011;11286;45.596;5.284;2022-07-29T14:33:08;2.67;;;2.33;;
22234;SDS011;11286;45.596;5.284;2022-07-29T14:35:34;2.20;;;2.00;;
22234;SDS011;11286;45.596;5.284;2022-07-29T14:37:59;2.60;;;2.40;;
22234;SDS011;11286;45.596;5.284;2022-07-29T14:40:25;2.58;;;2.38;;
22234;SDS011;11286;45.596;5.284;2022-07-29T14:42:51;2.45;;;2.25;;
22234;SDS011;11286;45.596;5.284;2022-07-29T14:45:17;2.45;;;2.25;;
22234;SDS011;11286;45.596;5.284;2022-07-29T14:47:43;2.83;;;2.55;;
22234;SDS011;11286;45.596;5.284;2022-07-29T14:50:08;2.80;;;2.33;;
22234;SDS011;11286;45.596;5.284;2022-07-29T14:52:35;4.05;;;2.67;;
22234;SDS011;11286;45.596;5.284;2022-07-29T14:55:01;2.63;;;2.42;;
22234;SDS011;11286;45.596;5.284;2022-07-29T14:57:27;2.65;;;2.45;;
22234;SDS011;11286;45.596;5.284;2022-07-29T14:59:53;5.03;;;2.78;;
22234;SDS011;11286;45.596;5.284;2022-07-29T15:02:19;2.45;;;2.25;;
22234;SDS011;11286;45.596;5.284;2022-07-29T15:04:45;3.38;;;2.55;;
22234;SDS011;11286;45.596;5.284;2022-07-29T15:07:12;4.10;;;2.50;;
22234;SDS011;11286;45.596;5.284;2022-07-29T15:09:38;2.97;;;2.40;;
22234;SDS011;11286;45.596;5.284;2022-07-29T15:12:04;2.80;;;2.40;;
22234;SDS011;11286;45.596;5.284;2022-07-29T15:14:30;3.10;;;2.40;;
22234;SDS011;11286;45.596;5.284;2022-07-29T15:16:57;3.78;;;2.35;;
22234;SDS011;11286;45.596;5.284;2022-07-29T15:19:22;2.95;;;2.40;;
22234;SDS011;11286;45.596;5.284;2022-07-29T15:21:48;2.90;;;2.70;;
22234;SDS011;11286;45.596;5.284;2022-07-29T15:24:14;3.55;;;2.30;;
22234;SDS011;11286;45.596;5.284;2022-07-29T15:26:40;3.78;;;2.40;;
22234;SDS011;11286;45.596;5.284;2022-07-29T15:29:07;2.72;;;2.15;;